• Join FlightAware (Why Join?)
  • Login
  • US Flag 
11:20AM EDT


 

Airport Tracker/Info


-or-


 

Live Flight TrackerFlight Track Log ✈ KAP927 ✈ 22-Jun-2013 ✈ KALB - KOGS

Flight Track Log - Related Links

Times and Time Zones

All times are in EDT time to prevent confusion due to time zone crossing. See the KAP927 flight status page for this flight to view local times or setup timezone preferences in your user account.

Time Position Orientation Groundspeed Altitude Reporting Facility
EDT Latitude Longitude Course Direction KTS MPH feet Rate Location/Type
02:33PM 42.7803 -73.7639 42° Northeast 136 157 1,300  Level Boston Center
02:34PM 42.8114 -73.7872 331° Northwest 132 152 1,900 480 Climbing Boston Center
02:35PM 42.8342 -73.8047 331° Northwest 133 153 2,200 420 Climbing Boston Center
02:36PM 42.8692 -73.8339 329° Northwest 132 152 2,700 480 Climbing Boston Center
02:37PM 42.9042 -73.8631 329° Northwest 132 152 3,300 480 Climbing Boston Center
02:38PM 42.9372 -73.8922 327° Northwest 134 154 3,800 420 Climbing Boston Center
02:39PM 42.9661 -73.9156 329° Northwest 132 152 4,200 480 Climbing Boston Center
02:40PM 42.9928 -73.9417 324° Northwest 132 152 4,700 480 Climbing Boston Center
02:41PM 43.0094 -73.9533 333° Northwest 131 151 5,000 420 Climbing Boston Center
02:42PM 43.0339 -73.9767 325° Northwest 126 145 5,400 420 Climbing Boston Center
02:43PM 43.0711 -74.0089 328° Northwest 151 174 5,900 420 Climbing Boston Center
02:44PM 43.1000 -74.0325 329° Northwest 151 174 6,300 420 Climbing Boston Center
02:45PM 43.1350 -74.0647 326° Northwest 141 162 6,800 420 Climbing Boston Center
02:46PM 43.1617 -74.0881 327° Northwest 136 157 7,200 360 Climbing Boston Center
02:47PM 43.1986 -74.1206 327° Northwest 136 157 7,600 300 Climbing Boston Center
02:48PM 43.2275 -74.1469 326° Northwest 142 163 7,900 180 Climbing Boston Center
02:49PM 43.2667 -74.1794 329° Northwest 142 163 8,000 60 Climbing Boston Center
02:50PM 43.2975 -74.2089 325° Northwest 147 169 8,100  Climbing Boston Center
02:51PM 43.3386 -74.2472 326° Northwest 152 175 8,100  Level Boston Center
02:52PM 43.3736 -74.2711 334° Northwest 152 175 8,100  Level Boston Center
02:53PM 43.4044 -74.3033 323° Northwest 157 181 8,100  Level Boston Center
02:54PM 43.4475 -74.3389 329° Northwest 157 181 8,100  Level Boston Center
02:55PM 43.4761 -74.3656 326° Northwest 157 181 8,100  Level Boston Center
02:56PM 43.5194 -74.4042 327° Northwest 152 175 8,100 -60 Level Boston Center
02:57PM 43.5564 -74.4342 330° Northwest 152 175 8,000  Descending Boston Center
02:58PM 43.5953 -74.4697 326° Northwest 152 175 8,100  Climbing Boston Center
02:59PM 43.6303 -74.5025 326° Northwest 152 175 8,100 -60 Level Boston Center
03:00PM 43.6669 -74.5353 327° Northwest 152 175 8,000  Descending Boston Center
03:01PM 43.7019 -74.5653 328° Northwest 152 175 8,100  Climbing Boston Center
03:02PM 43.7389 -74.5953 330° Northwest 152 175 8,100  Level Boston Center
03:03PM 43.7758 -74.6283 327° Northwest 152 175 8,100 -60 Level Boston Center
03:04PM 43.8106 -74.6642 323° Northwest 152 175 8,000  Descending Boston Center
03:05PM 43.8475 -74.6972 327° Northwest 152 175 8,100  Climbing Boston Center
03:06PM 43.8844 -74.7272 330° Northwest 152 175 8,100 -60 Level Boston Center
03:07PM 43.9192 -74.7603 326° Northwest 152 175 8,000 -180 Descending Boston Center
03:08PM 43.9581 -74.7936 328° Northwest 152 175 7,800 -360 Descending Boston Center
03:09PM 44.0008 -74.8328 327° Northwest 159 183 7,300 -600 Descending Boston Center
03:10PM 44.0439 -74.8692 329° Northwest 172 198 6,700 -600 Descending Boston Center
03:11PM 44.0847 -74.9114 323° Northwest 178 205 6,200 -360 Descending Boston Center
03:12PM 44.1278 -74.9478 329° Northwest 183 211 6,000 -120 Descending Boston Center
03:13PM 44.1644 -74.9811 327° Northwest 183 211 6,000 -60 Level Boston Center
03:14PM 44.2053 -75.0178 327° Northwest 178 205 5,900 -360 Descending Boston Center
03:15PM 44.2522 -75.0633 325° Northwest 171 197 5,300 -600 Descending Boston Center
03:16PM 44.2931 -75.1056 323° Northwest 176 203 4,700 -600 Descending Boston Center
03:17PM 44.3358 -75.1483 324° Northwest 176 203 4,100 -600 Descending Boston Center
03:18PM 44.3744 -75.1906 322° Northwest 176 203 3,500 -600 Descending Boston Center
03:19PM 44.4150 -75.2333 323° Northwest 176 203 2,900 -600 Descending Boston Center
03:20PM 44.4556 -75.2817 320° Northwest 176 203 2,400 -540 Descending Boston Center